메인 페이지
METAR-TAF:

METAR-TAF

공항 :

바레인 국제공항

바레인, 바레인

위도: 26-16N, 경도: 050-39E, 고도: 2m

현재 날씨관측

예보는 23분 전, 15:00시(UTC)에 발표되었습니다.
북북서16kt
온도 23°C
습도 61%
기압 1014 hPa
시정 10km 이상
고도 3500ft 상공 구름 조금

METAR: OBBI 111500Z 33016KT 9999 FEW035 23/15 Q1014 NOSIG

시각: 18:23 (15:23 UTC)

예보

예보는 4 시간 23분 전, 11:00시(UTC)에 발표되었습니다.
예보 대상 시간: 11일 12시부터 12일 18시까지 (UTC)
북북서13kt
시정 10km 이상
고도 3000ft 상공 구름 보통

TAF: OBBI 111100Z 1112/1218 33013KT 9999 SCT030

4,000개 이상의 공항 관측 자료 및 예보 (METAR 및 TAF 보고).

지도상에서 검색 가능한 기상관측소가 노란 점과 빨간 점으로 표시되어 있습니다.

기상관측소 명을 보려면 표시 위로 마우스를 이동하세요.

날씨 관측과 예보를 보려면 클릭하세요.

지도 변경 : 확대하려면 엑스 표시가 있는 녹색 버튼, 축소하려면 빼기 표시가 있는 녹색 버튼, 다음 페이지의 지도를 보려면 녹색 화살표를 클릭하세요.


METAR-TAF: